Portada
METAR-TAF:

METAR-TAF

Aeroports :

Bandar Lengeh, Iran

latitud: 26-35N, longitud: 054-50E, altitud: 14 m

Observació

L'informe es va fer fa 1 hora i 13 minuts, a les 00:00 UTC
Vent 4 kt del Nord/Nord-Oest
Temperatura 33°C
Humitat 28%
Pressió 1004 hPa
Visibilitat: 6000 m

METAR: OIBL 180000Z 33004KT 6000 NSC 33/12 Q1004

Hora: 05:43 (01:13 UTC)


TAF: manca

Observacions i pronòstics meteorològics de més de 4000 aeroports (METAR i TAF).

Les estacions disponibles són els punts grocs i vermells al mapa.

Posi el ratolí al punt desitjat per veure el nom de l'estació.

Feu clic per veure les observacions i els pronòstics meteorològics.

Per canviar el mapa: feu clic els botons verds amb una creu de color negre per apropar; al botó verd amb un guió per allunyar la imatge; o en les fletxes verdes per a mapes adjacents.


METAR-TAF: